< Cyclone 199205 1992 Season Cyclone 199207 >
Cyclone 199206 (IAN)
General InformationTrack Information on Google MapsDetailed Wind InformationList of All Images || ResourceGoogle EarthGE AnimationAtom FeedGeoJSON
Detalied Best Track (Time Zone = UTC)
Year Month Day Hour Lat. Long. Pressure (hPa) Wind (kt) Class Image Chart
1992 2 27 00 -11.7 114.3 1000 31 2 Image --
1992 2 27 06 -11.6 114.5 995 39 3 Image --
1992 2 27 12 -11.6 115.1 995 39 3 Image --
1992 2 27 18 -11.5 115.5 990 47 3 Image --
1992 2 28 00 -11.5 115.9 980 60 4 Image --
1992 2 28 06 -11.5 116.5 970 74 5 Image --
1992 2 28 12 -11.8 116.9 960 84 5 Image --
1992 2 28 18 -12.3 117.2 955 89 5 Image --
1992 2 29 00 -12.8 117.3 955 89 5 Image --
1992 2 29 06 -13.3 117.3 950 95 5 Image --
1992 2 29 09 -13.7 117.3 945 99 5 Image --
1992 2 29 12 -14.1 117.3 945 99 5 Image --
1992 2 29 15 -14.4 117.3 950 95 5 Image --
1992 2 29 18 -14.6 117.3 950 95 5 Image --
1992 2 29 21 -14.9 117.3 950 95 5 Image --
1992 3 1 00 -15.2 117.3 945 99 5 Image --
1992 3 1 03 -15.6 117.3 935 109 5 Image --
1992 3 1 06 -16.0 117.2 930 113 5 Image --
1992 3 1 09 -16.5 117.1 930 113 5 Image --
1992 3 1 12 -17.0 116.9 935 109 5 Image --
1992 3 1 15 -17.4 116.8 945 99 5 Image --
1992 3 1 18 -17.8 116.6 955 89 5 Image --
1992 3 1 21 -18.2 116.4 960 84 5 Image --
1992 3 2 00 -18.5 116.1 960 84 5 Image --
1992 3 2 03 -18.9 115.9 960 84 5 Image --
1992 3 2 06 -19.3 115.8 960 84 5 Image --
1992 3 2 09 -19.7 115.6 960 84 5 Image --
1992 3 2 12 -20.1 115.5 960 84 5 Image --
1992 3 2 15 -20.4 115.4 960 84 5 Image --
1992 3 2 17 -20.6 115.4 960 84 5 Image --
1992 3 2 18 -20.7 115.5 960 84 5 Image --
1992 3 2 21 -21.1 115.7 965 80 5 Image --
1992 3 3 00 -21.6 115.7 970 74 5 Image --
1992 3 3 03 -22.0 116.1 975 66 5 Image --
1992 3 3 06 -22.6 116.5 980 60 4 Image --
1992 3 3 09 -23.0 116.8 985 54 4 Image --
1992 3 3 12 -23.5 117.2 990 47 3 Image --
1992 3 3 15 -24.0 117.6 995 39 3 Image --
1992 3 3 18 -24.5 118.0 995 39 3 Image --
1992 3 3 21 -25.0 118.3 1000 31 2 Image --
1992 3 4 00 -25.6 118.7 1005 23 2 Image --
< Cyclone 199205 1992 Season Cyclone 199207 >

Help